Time;durP1;ratioP1;P1;durP2;ratioP2;P2;SDS_P1;SDS_P2;PMS_P1;PMS_P2;Temp;Humidity;BMP_temperature;BMP_pressure;BME280_temperature;BME280_humidity;BME280_pressure;Samples;Min_cycle;Max_cycle;Signal;HPM_P1;HPM_P2
2021/08/17 00:05:02;;;;;;;9.57;3.20;;;;;;;12.34;83.65;101622.75;10463810;28;20053;-60
2021/08/17 00:10:05;;;;;;;10.70;4.05;;;;;;;12.25;84.51;101639.81;10463450;28;20044;-60
2021/08/17 00:15:08;;;;;;;19.38;3.50;;;;;;;12.23;85.13;101634.66;10461677;28;20056;-61
2021/08/17 00:20:11;;;;;;;11.43;3.35;;;;;;;12.11;85.20;101637.06;10462995;28;20060;-59
2021/08/17 00:25:14;;;;;;;14.13;4.13;;;;;;;12.12;87.18;101633.50;10462795;28;20512;-60
2021/08/17 00:30:16;;;;;;;8.07;3.55;;;;;;;12.18;85.72;101627.94;10462758;28;20048;-60
2021/08/17 00:35:18;;;;;;;10.05;4.22;;;;;;;11.93;87.36;101633.56;10462494;28;20049;-59
2021/08/17 00:40:21;;;;;;;12.63;3.78;;;;;;;11.95;87.49;101623.84;10462282;28;20045;-59
2021/08/17 00:45:25;;;;;;;9.07;3.83;;;;;;;11.87;88.35;101625.06;10462311;28;20064;-59
2021/08/17 00:50:30;;;;;;;13.05;4.05;;;;;;;11.83;88.10;101626.09;10459657;28;20052;-60
2021/08/17 00:55:33;;;;;;;8.30;4.25;;;;;;;11.64;90.43;101625.34;10462109;28;20049;-59
2021/08/17 01:00:35;;;;;;;11.82;3.90;;;;;;;11.78;89.50;101619.41;10461427;28;20041;-59
2021/08/17 01:05:38;;;;;;;9.65;4.07;;;;;;;11.65;90.14;101616.53;10461890;28;20052;-60
2021/08/17 01:10:41;;;;;;;8.20;4.43;;;;;;;11.89;88.36;101620.56;10461268;28;20045;-59
2021/08/17 01:15:43;;;;;;;11.10;4.72;;;;;;;11.82;89.40;101620.97;10460980;28;20056;-60
2021/08/17 01:20:50;;;;;;;10.90;4.97;;;;;;;11.73;90.07;101627.50;10459470;28;20444;-60
2021/08/17 01:25:53;;;;;;;12.45;5.43;;;;;;;11.71;90.68;101627.56;10460964;28;20049;-59
2021/08/17 01:31:03;;;;;;;7.28;4.47;;;;;;;11.76;90.14;101629.13;10460959;28;20045;-60
2021/08/17 01:36:05;;;;;;;10.15;4.75;;;;;;;11.45;92.02;101628.00;10460049;28;20448;-59
2021/08/17 01:41:10;;;;;;;11.70;5.18;;;;;;;11.64;91.52;101636.66;10460171;28;20051;-59
2021/08/17 01:46:13;;;;;;;8.98;4.53;;;;;;;11.57;92.95;101637.88;10459979;28;20045;-60
2021/08/17 01:51:16;;;;;;;9.00;5.13;;;;;;;11.57;93.01;101645.75;10459237;28;20079;-60
2021/08/17 01:56:18;;;;;;;10.30;4.82;;;;;;;11.44;94.26;101639.41;10459141;28;20052;-60
2021/08/17 02:01:20;;;;;;;11.38;5.95;;;;;;;11.45;95.07;101647.19;10458336;28;20045;-59
2021/08/17 02:06:23;;;;;;;14.82;5.80;;;;;;;11.54;93.60;101656.38;10457988;28;20111;-61
2021/08/17 02:11:25;;;;;;;12.35;5.97;;;;;;;11.63;93.67;101655.09;10458376;28;20393;-59
2021/08/17 02:16:28;;;;;;;12.20;6.10;;;;;;;11.49;94.28;101651.34;10458789;28;20057;-60
2021/08/17 02:21:30;;;;;;;20.83;7.82;;;;;;;11.68;92.46;101646.09;10458538;28;20045;-60
2021/08/17 02:26:32;;;;;;;14.27;5.93;;;;;;;11.62;94.20;101651.63;10458207;28;20053;-59
2021/08/17 02:31:35;;;;;;;15.23;7.05;;;;;;;11.45;95.79;101647.19;10458073;28;20045;-59
2021/08/17 02:36:37;;;;;;;11.27;5.60;;;;;;;11.49;95.69;101645.28;10457711;28;20554;-60
2021/08/17 02:41:39;;;;;;;17.02;7.05;;;;;;;11.52;95.55;101645.97;10458115;28;20049;-58
2021/08/17 02:46:42;;;;;;;13.25;5.97;;;;;;;11.65;94.48;101640.13;10457522;28;20393;-60
2021/08/17 02:51:44;;;;;;;16.90;6.57;;;;;;;11.58;94.95;101641.34;10457155;28;20048;-59
2021/08/17 02:56:47;;;;;;;13.43;6.53;;;;;;;11.47;95.81;101647.13;10456093;28;20060;-60
2021/08/17 03:01:49;;;;;;;13.80;6.43;;;;;;;11.38;97.15;101632.69;10457186;28;20049;-60
2021/08/17 03:06:52;;;;;;;18.83;7.18;;;;;;;11.56;96.92;101638.81;10456719;28;20098;-59
2021/08/17 03:11:54;;;;;;;15.50;7.00;;;;;;;11.59;96.93;101630.78;10456848;28;20045;-59
2021/08/17 03:16:57;;;;;;;15.63;7.22;;;;;;;11.45;97.91;101635.88;10455563;28;20057;-61
2021/08/17 03:21:59;;;;;;;11.00;6.53;;;;;;;11.61;97.59;101639.44;10456478;28;20049;-59
2021/08/17 03:27:01;;;;;;;14.25;7.40;;;;;;;11.76;94.83;101635.22;10456341;28;20417;-60
2021/08/17 03:32:04;;;;;;;17.88;8.60;;;;;;;11.62;95.91;101629.81;10456408;28;20049;-59
2021/08/17 03:37:06;;;;;;;19.17;9.18;;;;;;;11.42;98.15;101625.53;10456188;28;20056;-60
2021/08/17 03:42:09;;;;;;;16.00;7.25;;;;;;;11.53;96.41;101626.69;10455672;28;20045;-59
2021/08/17 03:47:11;;;;;;;15.85;6.95;;;;;;;11.91;94.49;101628.41;10456072;28;20049;-61
2021/08/17 03:52:13;;;;;;;23.02;7.05;;;;;;;11.78;95.43;101619.41;10455797;28;20516;-59
2021/08/17 03:57:16;;;;;;;21.13;10.15;;;;;;;11.77;95.83;101623.81;10455468;28;20052;-59
2021/08/17 04:02:19;;;;;;;24.45;11.13;;;;;;;11.67;97.00;101633.06;10455056;28;20152;-60
2021/08/17 04:07:21;;;;;;;25.88;12.20;;;;;;;11.57;99.84;101642.28;10455082;28;20049;-60
2021/08/17 04:12:23;;;;;;;21.67;11.02;;;;;;;11.88;97.17;101637.25;10455581;28;20060;-60
2021/08/17 04:17:26;;;;;;;31.70;14.13;;;;;;;11.82;99.08;101647.19;10455707;28;20049;-60
2021/08/17 04:22:28;;;;;;;31.08;12.80;;;;;;;11.78;98.32;101643.00;10455765;28;20056;-60
2021/08/17 04:27:30;;;;;;;31.15;15.23;;;;;;;11.97;97.47;101638.59;10458372;28;20072;-60
2021/08/17 04:32:34;;;;;;;35.33;16.92;;;;;;;12.01;99.08;101641.91;10462814;28;20045;-61
2021/08/17 04:37:38;;;;;;;31.60;14.80;;;;;;;11.99;98.17;101644.63;10462185;28;20503;-60
2021/08/17 04:42:40;;;;;;;46.05;18.45;;;;;;;12.04;100.00;101628.66;10462571;28;20075;-59
2021/08/17 04:47:50;;;;;;;52.58;22.35;;;;;;;12.00;100.00;101634.97;10462173;28;20055;-60
2021/08/17 04:52:53;;;;;;;40.90;18.30;;;;;;;12.18;98.66;101633.19;10461961;28;20049;-60
2021/08/17 04:57:59;;;;;;;37.25;15.02;;;;;;;12.43;97.60;101638.88;10461603;28;20044;-60
2021/08/17 05:03:02;;;;;;;45.28;19.00;;;;;;;12.43;97.97;101653.78;10461802;28;20041;-59
2021/08/17 05:08:08;;;;;;;48.08;20.98;;;;;;;12.38;99.65;101658.44;10461500;28;20106;-59
2021/08/17 05:13:10;;;;;;;52.47;21.80;;;;;;;12.50;100.00;101660.41;10459614;28;20446;-59
2021/08/17 05:18:13;;;;;;;41.65;19.42;;;;;;;12.76;97.11;101673.97;10461282;28;20056;-59
2021/08/17 05:23:15;;;;;;;46.03;21.08;;;;;;;12.82;98.70;101671.03;10460733;28;20049;-60
2021/08/17 05:28:17;;;;;;;48.45;22.15;;;;;;;12.80;97.91;101675.53;10460062;28;20508;-59
2021/08/17 05:33:20;;;;;;;46.03;21.50;;;;;;;12.91;97.76;101672.31;10460183;28;20420;-59
2021/08/17 05:38:22;;;;;;;51.08;22.52;;;;;;;12.90;99.75;101675.88;10459691;28;20059;-59
2021/08/17 05:43:24;;;;;;;60.55;24.88;;;;;;;13.16;98.76;101674.47;10459950;28;20053;-60
2021/08/17 05:48:39;;;;;;;48.10;21.25;;;;;;;13.45;95.47;101666.78;10459742;28;20055;-59
2021/08/17 05:53:41;;;;;;;49.97;23.13;;;;;;;13.54;95.93;101656.59;10459498;28;20386;-60
2021/08/17 05:58:43;;;;;;;44.35;22.05;;;;;;;13.61;96.93;101657.09;10459322;28;20053;-58
2021/08/17 06:03:45;;;;;;;51.38;23.33;;;;;;;13.63;95.76;101649.97;10458948;28;20052;-58
2021/08/17 06:08:48;;;;;;;62.17;24.70;;;;;;;13.71;97.24;101649.53;10459036;28;20048;-60
2021/08/17 06:13:51;;;;;;;54.38;22.45;;;;;;;13.85;96.46;101648.75;10458590;28;20056;-59
2021/08/17 06:18:54;;;;;;;49.22;21.00;;;;;;;13.65;96.29;101648.13;10458188;28;20045;-59
2021/08/17 06:23:57;;;;;;;46.90;22.48;;;;;;;13.80;96.79;101664.81;10458226;28;20052;-59
2021/08/17 06:28:59;;;;;;;54.30;24.05;;;;;;;13.97;95.80;101666.47;10457747;28;20445;-59
2021/08/17 06:34:02;;;;;;;46.65;22.33;;;;;;;14.22;94.95;101654.50;10457978;28;20041;-60
2021/08/17 06:39:05;;;;;;;47.90;22.08;;;;;;;14.26;95.88;101642.84;10457901;28;20055;-60
2021/08/17 06:44:07;;;;;;;53.80;25.02;;;;;;;14.17;95.71;101636.34;10458010;28;20047;-59
2021/08/17 06:49:10;;;;;;;45.67;23.20;;;;;;;14.26;94.56;101641.06;10456513;28;20041;-59
2021/08/17 06:54:12;;;;;;;49.72;23.50;;;;;;;14.32;95.92;101642.47;10457060;28;20075;-60
2021/08/17 06:59:14;;;;;;;46.75;21.73;;;;;;;14.61;93.69;101637.28;10456953;28;20405;-60
2021/08/17 07:04:17;;;;;;;46.92;21.80;;;;;;;14.52;95.18;101629.91;10457855;28;20106;-60
2021/08/17 07:09:19;;;;;;;47.22;20.35;;;;;;;14.74;93.02;101629.44;10456891;28;20049;-60
2021/08/17 07:14:22;;;;;;;46.83;19.30;;;;;;;14.77;93.05;101643.28;10457332;28;20049;-60
2021/08/17 07:19:24;;;;;;;54.42;22.33;;;;;;;14.59;96.48;101644.41;10456730;28;20386;-60
2021/08/17 07:24:27;;;;;;;44.58;20.83;;;;;;;14.89;93.52;101657.50;10455402;28;20048;-61
2021/08/17 07:29:29;;;;;;;44.33;18.42;;;;;;;15.17;93.38;101663.69;10456451;28;20041;-60
2021/08/17 07:34:32;;;;;;;45.80;19.90;;;;;;;15.15;93.62;101658.53;10456351;28;20052;-60
2021/08/17 07:39:34;;;;;;;41.50;18.13;;;;;;;15.26;92.75;101646.44;10456198;28;20413;-60
2021/08/17 07:44:36;;;;;;;41.13;20.33;;;;;;;15.29;91.95;101649.72;10456229;28;20049;-60
2021/08/17 07:49:39;;;;;;;38.25;18.50;;;;;;;15.76;89.96;101655.56;10456814;28;20103;-61
2021/08/17 07:54:41;;;;;;;38.28;17.25;;;;;;;16.28;87.90;101649.41;10456030;28;20049;-60
2021/08/17 07:59:44;;;;;;;31.95;15.80;;;;;;;16.47;88.52;101649.00;10455812;28;20481;-60
2021/08/17 08:04:46;;;;;;;40.53;18.27;;;;;;;16.70;86.16;101642.13;10463543;28;20099;-60
2021/08/17 08:09:48;;;;;;;40.95;18.15;;;;;;;16.53;86.75;101650.38;10463892;28;20485;-61
2021/08/17 08:14:51;;;;;;;28.15;14.98;;;;;;;16.55;86.95;101659.06;10462262;28;20059;-60
2021/08/17 08:19:53;;;;;;;30.65;15.82;;;;;;;16.49;88.14;101659.47;10463150;28;20052;-61
2021/08/17 08:24:56;;;;;;;32.72;15.63;;;;;;;16.26;88.51;101646.03;10462966;28;20060;-60
2021/08/17 08:29:58;;;;;;;27.25;15.13;;;;;;;16.42;86.95;101651.09;10462940;28;20053;-60
2021/08/17 08:35:01;;;;;;;35.15;16.02;;;;;;;16.47;87.53;101640.22;10462608;28;20053;-60
2021/08/17 08:40:04;;;;;;;27.50;14.50;;;;;;;16.77;86.32;101639.06;10462184;28;20045;-60
2021/08/17 08:45:08;;;;;;;30.77;14.77;;;;;;;16.62;89.18;101635.69;10460767;28;20095;-60
2021/08/17 08:50:11;;;;;;;27.38;15.15;;;;;;;16.33;89.53;101635.91;10462195;28;20045;-60
2021/08/17 08:55:13;;;;;;;30.38;15.05;;;;;;;16.40;86.75;101639.81;10462001;28;20040;-60
2021/08/17 09:00:16;;;;;;;25.98;13.52;;;;;;;16.78;85.67;101641.59;10461466;28;20045;-60
2021/08/17 09:05:21;;;;;;;23.13;12.32;;;;;;;16.68;84.70;101645.84;10460168;28;20481;-60
2021/08/17 09:10:27;;;;;;;26.05;14.05;;;;;;;16.70;83.90;101644.75;10461556;28;20485;-61
2021/08/17 09:15:32;;;;;;;26.10;14.18;;;;;;;16.64;83.72;101661.06;10460805;28;20060;-61
2021/08/17 09:20:45;;;;;;;23.48;12.27;;;;;;;16.76;84.83;101663.78;10460873;28;20127;-60
2021/08/17 09:25:47;;;;;;;24.58;13.60;;;;;;;17.13;82.13;101661.22;10460518;28;20045;-60
2021/08/17 09:30:50;;;;;;;26.85;12.35;;;;;;;17.01;83.36;101653.22;10459340;28;20053;-60
2021/08/17 09:35:57;;;;;;;25.58;13.23;;;;;;;16.80;81.76;101644.13;10461268;28;20132;-60
2021/08/17 09:41:03;;;;;;;21.73;11.55;;;;;;;17.12;81.58;101652.44;10459919;28;20516;-60
2021/08/17 09:46:10;;;;;;;21.42;10.73;;;;;;;17.26;81.55;101643.50;10458771;28;20053;-61
2021/08/17 09:51:31;;;;;;;19.42;9.73;;;;;;;17.27;81.96;101614.28;10459861;28;20053;-61
2021/08/17 09:56:33;;;;;;;17.02;9.90;;;;;;;16.92;80.92;101616.84;10459448;28;20405;-61
2021/08/17 10:01:36;;;;;;;17.85;9.85;;;;;;;17.37;80.42;101603.88;10459308;28;20045;-60
2021/08/17 10:06:39;;;;;;;13.57;8.43;;;;;;;16.86;80.63;101602.25;10459023;28;20049;-60
2021/08/17 10:11:43;;;;;;;14.23;8.15;;;;;;;17.15;78.49;101609.06;10441371;28;20051;-60
2021/08/17 10:16:46;;;;;;;17.42;8.23;;;;;;;17.22;80.62;101623.53;10458738;28;20061;-60
2021/08/17 10:21:50;;;;;;;20.15;9.15;;;;;;;16.73;81.61;101622.56;10458905;28;20048;-61
2021/08/17 10:27:15;;;;;;;17.05;8.73;;;;;;;17.03;80.97;101626.63;10457693;28;20060;-60
2021/08/17 10:32:36;;;;;;;17.10;8.73;;;;;;;16.80;81.57;101618.53;10457846;28;20056;-60
2021/08/17 10:37:40;;;;;;;16.00;8.73;;;;;;;17.02;81.86;101606.44;10457713;28;20425;-60
2021/08/17 10:42:51;;;;;;;17.13;9.68;;;;;;;16.96;81.80;101604.22;10458331;28;20045;-61
2021/08/17 10:47:54;;;;;;;12.23;8.30;;;;;;;17.26;81.50;101609.97;10457753;28;20053;-59
2021/08/17 10:52:56;;;;;;;16.60;8.82;;;;;;;17.08;79.73;101609.50;10457432;28;20041;-60
2021/08/17 10:58:04;;;;;;;16.23;8.27;;;;;;;16.44;82.98;101596.38;10457403;28;20115;-61
2021/08/17 11:03:06;;;;;;;12.45;8.30;;;;;;;16.83;81.44;101601.59;10456871;28;20045;-60
2021/08/17 11:08:30;;;;;;;14.90;8.07;;;;;;;16.58;82.23;101603.31;10457020;28;20118;-61
2021/08/17 11:13:33;;;;;;;15.80;7.63;;;;;;;16.53;84.27;101608.09;10456253;28;20045;-60
2021/08/17 11:18:52;;;;;;;11.88;7.45;;;;;;;16.60;83.37;101605.88;10455177;28;20485;-60
2021/08/17 11:24:30;;;;;;;10.50;7.15;;;;;;;16.30;82.96;101610.50;10456548;28;20053;-60
2021/08/17 11:29:33;;;;;;;12.02;6.68;;;;;;;16.09;84.93;101618.13;10456734;28;20053;-60
2021/08/17 11:34:38;;;;;;;14.70;7.50;;;;;;;16.29;85.15;101615.91;10455414;28;20124;-61
2021/08/17 11:39:47;;;;;;;14.75;7.28;;;;;;;16.48;85.42;101616.34;10464577;28;20060;-60
2021/08/17 11:44:52;;;;;;;13.23;8.65;;;;;;;15.87;86.09;101613.44;10464605;28;20494;-60
2021/08/17 11:49:56;;;;;;;17.08;7.78;;;;;;;16.03;86.88;101617.69;10463342;28;20045;-60
2021/08/17 11:55:04;;;;;;;10.30;7.65;;;;;;;15.58;88.59;101623.25;10464172;28;20053;-62
2021/08/17 12:00:26;;;;;;;17.88;7.57;;;;;;;15.87;90.67;101626.66;10464265;28;20049;-61
2021/08/17 12:05:30;;;;;;;11.88;7.40;;;;;;;15.34;92.13;101625.69;10463956;28;20123;-60
2021/08/17 12:10:35;;;;;;;20.10;8.10;;;;;;;15.58;91.23;101618.84;10462400;28;20052;-60
2021/08/17 12:15:57;;;;;;;14.10;8.80;;;;;;;15.42;92.25;101618.97;10462356;28;20056;-61
2021/08/17 12:21:05;;;;;;;23.20;9.95;;;;;;;15.14;95.75;101622.53;10463705;28;20051;-61
2021/08/17 12:26:14;;;;;;;18.08;9.73;;;;;;;15.22;98.44;101629.97;10463166;28;20060;-61
2021/08/17 12:31:28;;;;;;;16.75;9.02;;;;;;;15.39;96.34;101624.44;10462709;28;20053;-60
2021/08/17 12:36:40;;;;;;;16.40;10.57;;;;;;;15.46;97.05;101619.63;10462853;28;20048;-62
2021/08/17 12:41:47;;;;;;;;;;;;;;;15.29;95.62;101610.16;10463182;28;20049;-61
2021/08/17 12:47:03;;;;;;;18.77;11.82;;;;;;;15.33;96.95;101622.22;10461303;28;19929;-61
2021/08/17 12:52:32;;;;;;;24.00;12.77;;;;;;;15.22;97.43;101616.78;10461990;28;20401;-60
2021/08/17 12:57:42;;;;;;;18.38;11.13;;;;;;;15.68;93.85;101620.84;10461678;28;20051;-60
2021/08/17 13:02:47;;;;;;;19.05;12.05;;;;;;;15.64;97.51;101611.47;10461929;28;20048;-61
2021/08/17 13:07:50;;;;;;;15.48;9.95;;;;;;;15.68;95.45;101603.22;10461386;28;20440;-60
2021/08/17 13:12:53;;;;;;;18.23;11.65;;;;;;;15.45;100.00;101606.50;10461300;28;20056;-60
2021/08/17 13:17:56;;;;;;;16.25;11.45;;;;;;;15.26;96.40;101612.16;10460620;28;20057;-60
2021/08/17 13:22:58;;;;;;;20.13;12.63;;;;;;;14.94;99.68;101612.41;10460884;28;20052;-61
2021/08/17 13:28:04;;;;;;;14.88;9.63;;;;;;;15.24;98.56;101607.81;10461216;28;20060;-61
2021/08/17 13:33:08;;;;;;;19.20;13.15;;;;;;;15.10;98.77;101593.84;10460443;28;20049;-61
2021/08/17 13:38:11;;;;;;;13.98;10.23;;;;;;;15.32;98.50;101601.22;10460666;28;20053;-60
2021/08/17 13:43:13;;;;;;;14.40;10.30;;;;;;;15.31;99.29;101602.97;10460038;28;20052;-61
2021/08/17 13:48:16;;;;;;;14.48;10.48;;;;;;;15.05;99.61;101588.84;10460242;28;20085;-61
2021/08/17 13:53:18;;;;;;;17.48;14.02;;;;;;;14.91;100.00;101592.34;10459673;28;20056;-61
2021/08/17 13:58:20;;;;;;;19.40;14.52;;;;;;;14.82;100.00;101591.13;10459109;28;20050;-62
2021/08/17 14:03:23;;;;;;;20.02;16.38;;;;;;;15.07;100.00;101584.31;10459199;28;20397;-61
2021/08/17 14:08:25;;;;;;;16.77;12.57;;;;;;;15.00;100.00;101572.47;10457860;28;20378;-61
2021/08/17 14:13:28;;;;;;;14.77;13.13;;;;;;;15.21;100.00;101572.88;10458598;28;20060;-61
2021/08/17 14:18:32;;;;;;;17.08;13.68;;;;;;;15.12;100.00;101570.84;10457382;28;20051;-61
2021/08/17 14:23:35;;;;;;;15.80;14.05;;;;;;;15.00;100.00;101572.47;10458701;28;20051;-61
2021/08/17 14:28:38;;;;;;;15.18;12.05;;;;;;;14.97;100.00;101583.19;10458406;28;20045;-61
2021/08/17 14:39:56;;;;;;;15.13;13.52;;;;;;;14.85;100.00;101561.94;10458387;28;20044;-61
2021/08/17 14:44:59;;;;;;;14.38;12.88;;;;;;;14.81;100.00;101551.69;10457932;28;20048;-61
2021/08/17 14:50:02;;;;;;;13.73;12.40;;;;;;;15.00;99.63;101552.22;10457535;28;20052;-60
2021/08/17 14:55:04;;;;;;;12.30;11.10;;;;;;;14.83;100.00;101553.28;10457645;28;20045;-61
2021/08/17 15:00:07;;;;;;;13.27;11.90;;;;;;;15.01;99.14;101561.81;10456845;28;20049;-60
2021/08/17 15:05:13;;;;;;;12.25;10.57;;;;;;;14.77;100.00;101560.72;10457384;28;20048;-60
2021/08/17 15:10:16;;;;;;;17.73;12.90;;;;;;;14.67;100.00;101556.03;10455465;28;20103;-60
2021/08/17 15:15:19;;;;;;;16.25;13.70;;;;;;;14.55;100.00;101555.94;10456697;28;20064;-61
2021/08/17 15:20:22;;;;;;;12.30;10.70;;;;;;;14.64;100.00;101548.34;10456587;28;20049;-61
2021/08/17 15:25:25;;;;;;;13.43;12.02;;;;;;;14.46;100.00;101544.19;10456472;28;20053;-60
2021/08/17 15:30:49;;;;;;;16.25;14.55;;;;;;;14.41;100.00;101541.81;10456365;28;20519;-60
2021/08/17 15:35:55;;;;;;;15.60;12.82;;;;;;;14.52;100.00;101543.78;10455192;28;20045;-60
2021/08/17 15:40:58;;;;;;;12.25;9.70;;;;;;;14.50;100.00;101535.13;10456564;28;20048;-60
2021/08/17 15:46:01;;;;;;;18.23;12.52;;;;;;;14.51;100.00;101526.28;10456060;28;20057;-61
2021/08/17 15:51:03;;;;;;;12.90;11.63;;;;;;;14.65;100.00;101514.91;10456117;28;20056;-61
2021/08/17 15:56:06;;;;;;;15.35;13.77;;;;;;;14.46;100.00;101531.84;10455951;28;20404;-60
2021/08/17 16:01:08;;;;;;;14.40;12.77;;;;;;;14.66;100.00;101530.63;10455703;28;20045;-60
2021/08/17 16:06:10;;;;;;;14.18;12.75;;;;;;;14.37;100.00;101521.03;10455863;28;20056;-61
2021/08/17 16:11:13;;;;;;;16.48;14.65;;;;;;;14.60;100.00;101524.91;10455425;28;20056;-60
2021/08/17 16:16:17;;;;;;;15.15;13.55;;;;;;;14.51;100.00;101521.03;10456547;28;20068;-60
2021/08/17 16:21:19;;;;;;;13.95;12.55;;;;;;;14.51;100.00;101521.03;10455382;28;20049;-60
2021/08/17 16:26:23;;;;;;;15.60;13.98;;;;;;;14.50;100.00;101506.97;10462696;28;20492;-61
2021/08/17 16:31:25;;;;;;;13.27;11.50;;;;;;;14.64;100.00;101498.25;10463051;28;20045;-60
2021/08/17 16:36:29;;;;;;;15.32;13.50;;;;;;;14.66;100.00;101490.25;10462842;28;20064;-61
2021/08/17 16:41:31;;;;;;;9.43;8.63;;;;;;;14.52;100.00;101490.25;10462469;28;20049;-60
2021/08/17 16:46:34;;;;;;;10.85;9.88;;;;;;;14.55;100.00;101492.69;10462155;28;20428;-60
2021/08/17 16:51:37;;;;;;;13.43;12.10;;;;;;;14.58;100.00;101497.78;10462783;28;20145;-60
2021/08/17 16:56:40;;;;;;;12.75;11.55;;;;;;;14.32;100.00;101492.31;10461713;28;20067;-61
2021/08/17 17:01:42;;;;;;;13.00;11.73;;;;;;;14.58;100.00;101487.22;10462069;28;20045;-61
2021/08/17 17:06:45;;;;;;;14.07;12.45;;;;;;;14.38;100.00;101484.06;10461084;28;20059;-61
2021/08/17 17:11:47;;;;;;;12.13;10.93;;;;;;;14.61;100.00;101480.00;10461253;28;20477;-60
2021/08/17 17:16:50;;;;;;;16.05;13.60;;;;;;;14.47;100.00;101480.84;10443462;28;20079;-60
2021/08/17 17:21:52;;;;;;;11.65;10.55;;;;;;;14.39;100.00;101475.22;10461140;28;20041;-61
2021/08/17 17:26:55;;;;;;;9.90;8.90;;;;;;;14.29;100.00;101472.31;10460926;28;20057;-60
2021/08/17 17:31:57;;;;;;;13.77;12.38;;;;;;;14.25;100.00;101483.97;10459559;28;20416;-62
2021/08/17 17:36:59;;;;;;;14.57;13.05;;;;;;;14.44;100.00;101477.53;10459969;28;20049;-61
2021/08/17 17:42:04;;;;;;;12.38;11.18;;;;;;;14.34;100.00;101476.44;10460152;28;20512;-61
2021/08/17 17:47:07;;;;;;;11.13;10.10;;;;;;;14.42;100.00;101472.38;10459966;28;20055;-60
2021/08/17 17:52:09;;;;;;;11.20;10.10;;;;;;;14.41;100.00;101465.44;10459657;28;20411;-60
2021/08/17 17:57:17;;;;;;;14.50;13.07;;;;;;;14.34;100.00;101466.75;10459670;28;20060;-60
2021/08/17 18:02:20;;;;;;;11.90;10.77;;;;;;;14.39;100.00;101469.09;10459944;28;20051;-59
2021/08/17 18:07:22;;;;;;;11.05;9.90;;;;;;;14.40;100.00;101452.34;10459018;28;20049;-59
2021/08/17 18:12:24;;;;;;;12.38;11.15;;;;;;;14.45;100.00;101452.91;10459084;28;20052;-60
2021/08/17 18:17:27;;;;;;;12.00;10.80;;;;;;;14.43;100.00;101453.00;10457273;28;20049;-60
2021/08/17 18:22:30;;;;;;;11.30;10.20;;;;;;;14.49;100.00;101443.84;10459197;28;20041;-61
2021/08/17 18:27:33;;;;;;;13.93;11.18;;;;;;;14.46;100.00;101444.91;10457115;28;20596;-61
2021/08/17 18:32:36;;;;;;;13.18;11.88;;;;;;;14.50;100.00;101438.47;10458902;28;20080;-60
2021/08/17 18:37:40;;;;;;;11.38;10.18;;;;;;;14.54;100.00;101447.06;10458617;28;20064;-60
2021/08/17 18:42:43;;;;;;;13.82;11.38;;;;;;;14.42;100.00;101440.75;10457727;28;20055;-61
2021/08/17 18:47:46;;;;;;;12.23;10.90;;;;;;;14.47;100.00;101438.69;10456848;28;20048;-60
2021/08/17 18:52:49;;;;;;;11.85;10.65;;;;;;;14.47;100.00;101449.25;10458029;28;20049;-60
2021/08/17 18:57:53;;;;;;;13.52;12.20;;;;;;;14.49;100.00;101441.22;10456228;28;20084;-61
2021/08/17 19:02:55;;;;;;;13.15;11.75;;;;;;;14.47;100.00;101449.25;10457887;28;20044;-60
2021/08/17 19:07:57;;;;;;;16.00;14.40;;;;;;;14.38;100.00;101451.59;10456732;28;20497;-61
2021/08/17 19:13:00;;;;;;;12.77;11.57;;;;;;;14.34;100.00;101456.22;10457648;28;20056;-60
2021/08/17 19:18:02;;;;;;;15.02;13.43;;;;;;;14.74;100.00;101452.84;10456952;28;20508;-61
2021/08/17 19:23:07;;;;;;;11.95;10.75;;;;;;;14.41;100.00;101449.63;10456419;28;20477;-61
2021/08/17 19:28:09;;;;;;;17.65;13.88;;;;;;;14.44;100.00;101456.47;10456177;28;20397;-60
2021/08/17 19:33:12;;;;;;;12.13;10.93;;;;;;;14.62;100.00;101463.22;10456580;28;20056;-61
2021/08/17 19:38:14;;;;;;;18.25;16.42;;;;;;;14.52;100.00;101471.81;10456720;28;20041;-60
2021/08/17 19:43:17;;;;;;;18.52;16.58;;;;;;;14.56;100.00;101462.75;10456430;28;20057;-61
2021/08/17 19:48:19;;;;;;;19.38;17.27;;;;;;;14.50;100.00;101464.81;10456692;28;20053;-60
2021/08/17 19:53:21;;;;;;;17.35;15.65;;;;;;;14.68;100.00;101475.19;10456308;28;20049;-61
2021/08/17 19:58:24;;;;;;;18.45;16.55;;;;;;;14.54;100.00;101469.91;10460623;28;20045;-61
2021/08/17 20:03:26;;;;;;;24.20;19.25;;;;;;;14.43;100.00;101479.34;10464307;28;20045;-60
2021/08/17 20:08:29;;;;;;;12.88;11.73;;;;;;;14.62;100.00;101478.22;10464007;28;20053;-60
2021/08/17 20:13:32;;;;;;;17.88;14.77;;;;;;;14.66;100.00;101480.56;10463616;28;20048;-61
2021/08/17 20:18:43;;;;;;;13.52;12.18;;;;;;;14.65;100.00;101480.66;10463883;28;20041;-61
2021/08/17 20:23:51;;;;;;;14.63;13.27;;;;;;;14.75;100.00;101478.28;10463468;28;20045;-59
2021/08/17 20:28:54;;;;;;;11.43;10.27;;;;;;;14.78;100.00;101475.44;10463371;28;20049;-61
2021/08/17 20:33:58;;;;;;;14.98;13.40;;;;;;;14.67;100.00;101476.13;10461730;28;20497;-60
2021/08/17 20:39:00;;;;;;;12.93;11.57;;;;;;;14.76;100.00;101474.69;10463213;28;20049;-61
2021/08/17 20:44:03;;;;;;;11.68;10.48;;;;;;;14.81;100.00;101478.72;10462533;28;20440;-60
2021/08/17 20:49:06;;;;;;;13.45;11.02;;;;;;;14.78;100.00;101472.81;10462561;28;20049;-60
2021/08/17 20:54:08;;;;;;;13.55;12.15;;;;;;;14.80;100.00;101470.91;10462286;28;20052;-60
2021/08/17 20:59:11;;;;;;;13.00;11.65;;;;;;;14.82;100.00;101469.84;10462653;28;20067;-60
2021/08/17 21:04:13;;;;;;;15.80;14.10;;;;;;;14.74;100.00;101464.22;10462086;28;20420;-60
2021/08/17 21:09:16;;;;;;;15.55;12.90;;;;;;;15.05;100.00;101462.25;10460650;28;20400;-61
2021/08/17 21:14:18;;;;;;;15.02;12.75;;;;;;;14.94;100.00;101468.22;10461454;28;20497;-61
2021/08/17 21:19:21;;;;;;;16.50;12.27;;;;;;;14.95;100.00;101469.91;10460739;28;20057;-61
2021/08/17 21:24:23;;;;;;;17.05;14.52;;;;;;;14.94;100.00;101472.66;10460835;28;20049;-60
2021/08/17 21:29:26;;;;;;;11.55;10.32;;;;;;;14.94;100.00;101464.75;10459548;28;20052;-61
2021/08/17 21:34:28;;;;;;;17.50;12.90;;;;;;;15.15;100.00;101457.22;10460461;28;20048;-61
2021/08/17 21:39:30;;;;;;;19.08;14.50;;;;;;;14.80;100.00;101460.38;10460224;28;20056;-61
2021/08/17 21:44:33;;;;;;;14.80;11.95;;;;;;;15.08;100.00;101454.16;10460361;28;20045;-61
2021/08/17 21:49:36;;;;;;;21.77;17.80;;;;;;;14.84;100.00;101468.00;10458460;28;20063;-61
2021/08/17 21:54:39;;;;;;;18.60;14.27;;;;;;;14.88;100.00;101476.53;10458635;28;20052;-61
2021/08/17 21:59:42;;;;;;;16.23;13.13;;;;;;;14.95;100.00;101469.09;10459309;28;20397;-61
2021/08/17 22:04:44;;;;;;;13.63;12.05;;;;;;;14.85;100.00;101471.47;10459885;28;20044;-60
2021/08/17 22:09:46;;;;;;;16.02;14.32;;;;;;;14.93;100.00;101468.31;10459124;28;20056;-60
2021/08/17 22:14:49;;;;;;;10.13;9.23;;;;;;;15.00;100.00;101472.25;10459333;28;20053;-61
2021/08/17 22:19:51;;;;;;;10.63;9.60;;;;;;;15.00;100.00;101469.63;10457731;28;20077;-61
2021/08/17 22:24:54;;;;;;;12.77;9.63;;;;;;;14.84;100.00;101481.19;10458740;28;20053;-60
2021/08/17 22:29:57;;;;;;;11.80;10.30;;;;;;;14.83;100.00;101481.28;10458548;28;20045;-60
2021/08/17 22:35:00;;;;;;;13.27;10.90;;;;;;;14.90;100.00;101484.34;10458031;28;20048;-60
2021/08/17 22:40:03;;;;;;;14.75;12.80;;;;;;;14.76;100.00;101482.59;10458030;28;20045;-60
2021/08/17 22:45:07;;;;;;;13.73;10.65;;;;;;;14.93;100.00;101479.72;10458374;28;20072;-60
2021/08/17 22:50:11;;;;;;;14.73;12.48;;;;;;;14.85;100.00;101471.47;10457715;28;20052;-61
2021/08/17 22:55:13;;;;;;;15.52;12.93;;;;;;;14.93;100.00;101479.72;10457532;28;20049;-60